Malmo, NE (68040)

1:15 AM CDT on August 29, 2015 (GMT -0500)
County Road R and County Road 21 | | Change Station
CLOSE
Current Station
Personal Weather Station
Location: Colon, NE
Elevation: 1299 ft
Nearby Weather Stations

Elev 1299 ft 41.31 °N, 96.69 °W | Updated 8 seconds ago

Overcast
Overcast
63.3 °F
Feels Like 63.3 °F
N
4.3
Wind Variable Wind from NE
Gusts 4.9 mph

Today
High -- | Low -- °F
--% Chance of Precip.
Yesterday
High -- | Low -- °F
Precip. -- in
6:50 AM 8:04 PM
Full, 100% visible
Pressure 29.99 in
Visibility 7.0 miles
Clouds Overcast 800 ft
Dew Point 62 °F
Humidity 94%
Rainfall 0.00 in
Snow Depth Not available.
UV 0 out of 12
Pollen 6.40 out of 12
Air Quality Not available.
Flu Activity Not available.
METAR KAHQ 290555Z AUTO 36006G14KT 7SM OVC008 17/16 A2999 RMK AO2 T01730158 10207 20173 402500173
Pressure 29.99 in
Visibility 7.0 miles
Clouds Overcast 800 ft
Dew Point 62 °F
Humidity 94%
Rainfall 0.00 in
Snow Depth Not available.
UV 0 out of 12
Pollen 6.40 out of 12
Air Quality Not available.
Flu Activity Not available.
METAR KAHQ 290555Z AUTO 36006G14KT 7SM OVC008 17/16 A2999 RMK AO2 T01730158 10207 20173 402500173

10-Day Weather Forecast

×

Almanac

Astronomy

Aug. 29, 2015 Rise Set
Actual Time
Civil Twilight
Nautical Twilight
Astronomical Twilight
Moon
Length of Visible Light
Length of Day
Tomorrow will be .
, % of the Moon is Illuminated

Today's Extremes

State Highs State Lows

Community

WunderPhotos

Upload Photos

1,850,622 photos uploaded!

WunderBlogs® & News

Nearby

Air Quality

  Air Quality AQ Index Pollutant
Not available.

Snow Depth

Station Depth Elevation

Earthquake Activity

City Distance Mag. Time & Date
Minimum magnitude displayed is 2.5.

Coastal Water Temperatures

Place Temperature

Stations

Nearby Weather Stations

Station Location Temp. Windchill Dew Point Humidity Wind Precip. Elev Updated Type